createdAt,value
2017-05-11T00:00:57.906Z,18.89
2017-05-11T00:01:58.545Z,18.80
2017-05-11T00:02:59.185Z,18.78
2017-05-11T00:04:00.173Z,18.73
2017-05-11T00:05:00.812Z,18.71
2017-05-11T00:06:01.453Z,18.62
2017-05-11T00:07:02.097Z,18.65
2017-05-11T00:08:02.732Z,18.63
2017-05-11T00:09:03.370Z,18.68
2017-05-11T00:10:04.010Z,18.63
2017-05-11T00:11:04.644Z,18.63
2017-05-11T00:12:05.289Z,18.62
2017-05-11T00:13:06.132Z,18.66
2017-05-11T00:14:06.763Z,18.59
2017-05-11T00:15:07.399Z,18.60
2017-05-11T00:16:08.041Z,18.53
2017-05-11T00:17:08.678Z,18.60
2017-05-11T00:18:09.312Z,18.56
2017-05-11T00:19:09.953Z,18.66
2017-05-11T00:20:10.595Z,18.55
2017-05-11T00:21:11.377Z,18.59
2017-05-11T00:22:12.017Z,18.62
2017-05-11T00:23:12.657Z,18.53
2017-05-11T00:24:13.295Z,18.59
2017-05-11T00:25:13.932Z,18.56
2017-05-11T00:26:14.572Z,18.52
2017-05-11T00:27:15.206Z,18.52
2017-05-11T00:28:15.841Z,18.56
2017-05-11T00:29:16.779Z,18.50
2017-05-11T00:30:17.420Z,18.53
2017-05-11T00:31:18.061Z,18.53
2017-05-11T00:32:18.701Z,18.53
2017-05-11T00:33:19.345Z,18.56
2017-05-11T00:34:19.985Z,18.50
2017-05-11T00:35:20.622Z,18.65
2017-05-11T00:36:21.261Z,18.52
2017-05-11T00:37:22.052Z,18.53
2017-05-11T00:38:22.690Z,18.62
2017-05-11T00:39:23.328Z,18.63
2017-05-11T00:40:23.962Z,18.68
2017-05-11T00:41:24.597Z,18.50
2017-05-11T00:42:25.231Z,18.49
2017-05-11T00:43:25.873Z,18.53
2017-05-11T00:44:26.510Z,18.45
2017-05-11T00:45:27.351Z,18.55
2017-05-11T00:46:27.983Z,18.47
2017-05-11T00:47:28.622Z,18.58
2017-05-11T00:48:29.264Z,18.45
2017-05-11T00:49:29.900Z,18.53
2017-05-11T00:50:30.534Z,18.50
2017-05-11T00:51:31.171Z,18.52
2017-05-11T00:52:31.810Z,18.50
2017-05-11T00:53:32.451Z,18.58
2017-05-11T00:54:33.491Z,18.43
2017-05-11T00:55:34.126Z,18.52
2017-05-11T00:56:34.766Z,18.52
2017-05-11T00:57:35.403Z,18.56
2017-05-11T00:58:36.041Z,18.52
2017-05-11T00:59:36.675Z,18.53
2017-05-11T01:00:37.312Z,18.55
2017-05-11T01:01:37.948Z,18.56
2017-05-11T01:02:38.846Z,18.63
2017-05-11T01:03:39.483Z,18.55
2017-05-11T01:04:40.116Z,18.66
2017-05-11T01:05:40.756Z,18.56
2017-05-11T01:06:41.394Z,18.49
2017-05-11T01:07:42.034Z,18.52
2017-05-11T01:08:42.673Z,18.55
2017-05-11T01:09:43.309Z,18.56
2017-05-11T01:10:44.148Z,18.62
2017-05-11T01:11:44.788Z,18.56
2017-05-11T01:12:45.428Z,18.53
2017-05-11T01:13:46.067Z,18.56
2017-05-11T01:14:46.708Z,18.49
2017-05-11T01:15:47.400Z,18.44
2017-05-11T01:16:48.043Z,18.38
2017-05-11T01:17:48.680Z,18.41
2017-05-11T01:18:49.622Z,18.31
2017-05-11T01:19:50.262Z,18.31
2017-05-11T01:20:50.901Z,18.22
2017-05-11T01:21:51.537Z,18.13
2017-05-11T01:22:52.178Z,18.23
2017-05-11T01:23:52.820Z,18.04
2017-05-11T01:24:53.452Z,18.07
2017-05-11T01:25:54.095Z,18.07
2017-05-11T01:26:54.731Z,18.15
2017-05-11T01:27:55.666Z,18.07
2017-05-11T01:28:56.302Z,18.00
2017-05-11T01:29:56.933Z,18.08
2017-05-11T01:30:57.572Z,17.95
2017-05-11T01:31:58.215Z,18.00
2017-05-11T01:32:58.857Z,18.03
2017-05-11T01:33:59.489Z,17.98
2017-05-11T01:35:00.126Z,18.00
2017-05-11T01:36:00.964Z,17.97
2017-05-11T01:37:01.602Z,17.98
2017-05-11T01:38:02.241Z,17.97
2017-05-11T01:39:02.880Z,17.97
2017-05-11T01:40:03.517Z,17.98
2017-05-11T01:41:04.162Z,18.00
2017-05-11T01:42:04.797Z,18.01
2017-05-11T01:43:05.433Z,18.10
2017-05-11T01:44:06.270Z,18.00
2017-05-11T01:45:06.911Z,18.07
2017-05-11T01:46:07.551Z,18.05
2017-05-11T01:47:08.185Z,18.08
2017-05-11T01:48:08.825Z,18.00
2017-05-11T01:49:09.461Z,18.08
2017-05-11T01:50:10.095Z,18.03
2017-05-11T01:51:10.733Z,18.10
2017-05-11T01:52:11.566Z,17.95
2017-05-11T01:53:12.209Z,18.08
2017-05-11T01:54:12.845Z,18.00
2017-05-11T01:55:13.485Z,17.94
2017-05-11T01:56:14.125Z,18.01
2017-05-11T01:57:14.764Z,18.07
2017-05-11T01:58:15.399Z,18.00
2017-05-11T01:59:16.033Z,18.08
2017-05-11T02:00:16.872Z,18.05
2017-05-11T02:01:17.513Z,18.08
2017-05-11T02:02:18.148Z,18.08
2017-05-11T02:03:18.786Z,18.03
2017-05-11T02:04:19.425Z,17.94
2017-05-11T02:05:20.063Z,17.98
2017-05-11T02:06:20.704Z,18.00
2017-05-11T02:07:21.345Z,17.95
2017-05-11T02:08:21.979Z,17.98
2017-05-11T02:09:22.820Z,17.92
2017-05-11T02:10:23.467Z,17.83
2017-05-11T02:11:24.097Z,17.85
2017-05-11T02:12:24.737Z,17.82
2017-05-11T02:13:25.370Z,17.92
2017-05-11T02:14:26.008Z,17.86
2017-05-11T02:15:26.646Z,17.83
2017-05-11T02:16:27.286Z,17.89
2017-05-11T02:17:28.068Z,17.82
2017-05-11T02:18:28.707Z,17.89
2017-05-11T02:19:29.344Z,17.85
2017-05-11T02:20:29.978Z,17.92
2017-05-11T02:21:30.620Z,17.89
2017-05-11T02:22:31.314Z,17.83
2017-05-11T02:23:31.952Z,17.97
2017-05-11T02:24:32.591Z,17.92
2017-05-11T02:25:33.435Z,17.98
2017-05-11T02:26:34.069Z,17.97
2017-05-11T02:27:34.709Z,17.89
2017-05-11T02:28:35.384Z,17.97
2017-05-11T02:29:36.185Z,18.00
2017-05-11T02:30:36.824Z,17.94
2017-05-11T02:31:37.463Z,17.95
2017-05-11T02:32:38.104Z,18.01
2017-05-11T02:33:38.892Z,17.98
2017-05-11T02:34:39.536Z,17.95
2017-05-11T02:35:40.175Z,17.94
2017-05-11T02:36:40.808Z,18.01
2017-05-11T02:37:41.449Z,17.89
2017-05-11T02:38:42.088Z,17.94
2017-05-11T02:39:42.726Z,17.97
2017-05-11T02:40:43.361Z,17.97
2017-05-11T02:41:44.000Z,18.00
2017-05-11T02:42:44.883Z,18.00
2017-05-11T02:43:45.524Z,18.01
2017-05-11T02:44:46.159Z,17.95
2017-05-11T02:45:46.798Z,17.90
2017-05-11T02:46:47.431Z,18.05
2017-05-11T02:47:48.072Z,18.01
2017-05-11T02:48:48.712Z,18.03
2017-05-11T02:49:49.351Z,18.00
2017-05-11T02:50:50.139Z,18.00
2017-05-11T02:51:50.780Z,18.00
2017-05-11T02:52:51.423Z,18.00
2017-05-11T02:53:52.057Z,18.07
2017-05-11T02:54:52.691Z,18.08
2017-05-11T02:55:53.329Z,18.11
2017-05-11T02:56:53.967Z,18.13
2017-05-11T02:57:54.607Z,18.08
2017-05-11T02:58:55.447Z,18.22
2017-05-11T02:59:56.085Z,18.11
2017-05-11T03:00:56.724Z,18.11
2017-05-11T03:01:57.367Z,18.13
2017-05-11T03:02:57.999Z,18.22
2017-05-11T03:03:58.637Z,18.20
2017-05-11T03:04:59.276Z,18.23
2017-05-11T03:05:59.914Z,18.18
2017-05-11T03:07:00.755Z,18.22
2017-05-11T03:08:01.396Z,18.28
2017-05-11T03:09:02.034Z,18.25
2017-05-11T03:10:02.674Z,18.28
2017-05-11T03:11:03.310Z,18.25
2017-05-11T03:12:03.947Z,18.23
2017-05-11T03:13:04.585Z,18.22
2017-05-11T03:14:05.228Z,18.29
2017-05-11T03:15:06.065Z,18.33
2017-05-11T03:16:06.707Z,18.28
2017-05-11T03:17:07.343Z,18.34
2017-05-11T03:18:07.983Z,18.35
2017-05-11T03:19:08.621Z,18.44
2017-05-11T03:20:09.261Z,18.38
2017-05-11T03:21:09.901Z,18.43
2017-05-11T03:22:10.542Z,18.44
2017-05-11T03:23:11.180Z,18.43
2017-05-11T03:24:12.021Z,18.44
2017-05-11T03:25:12.662Z,18.45
2017-05-11T03:26:13.299Z,18.47
2017-05-11T03:27:13.939Z,18.49
2017-05-11T03:28:14.578Z,18.47
2017-05-11T03:29:15.211Z,18.40
2017-05-11T03:30:15.849Z,18.47
2017-05-11T03:31:16.487Z,18.49
2017-05-11T03:32:17.427Z,18.45
2017-05-11T03:33:18.065Z,18.59
2017-05-11T03:34:18.703Z,18.47
2017-05-11T03:35:19.343Z,18.56
2017-05-11T03:36:19.984Z,18.44
2017-05-11T03:37:20.625Z,18.44
2017-05-11T03:38:21.257Z,18.43
2017-05-11T03:39:21.891Z,18.44
2017-05-11T03:40:22.681Z,18.45
2017-05-11T03:41:23.316Z,18.38
2017-05-11T03:42:23.952Z,18.45
2017-05-11T03:43:24.595Z,18.44
2017-05-11T03:44:25.232Z,18.40
2017-05-11T03:45:25.865Z,18.50
2017-05-11T03:46:26.506Z,18.55
2017-05-11T03:47:27.147Z,18.49
2017-05-11T03:48:27.987Z,18.49
2017-05-11T03:49:28.631Z,18.62
2017-05-11T03:50:29.267Z,18.65
2017-05-11T03:51:29.904Z,18.55
2017-05-11T03:52:30.545Z,18.66
2017-05-11T03:53:31.182Z,18.60
2017-05-11T03:54:31.821Z,18.66
2017-05-11T03:55:32.460Z,18.66
2017-05-11T03:56:33.101Z,18.75
2017-05-11T03:57:33.942Z,18.75
2017-05-11T03:58:34.575Z,18.80
2017-05-11T03:59:35.215Z,18.78
2017-05-11T04:00:35.855Z,18.81
2017-05-11T04:01:36.495Z,18.78
2017-05-11T04:02:37.141Z,18.83
2017-05-11T04:03:37.774Z,18.88
2017-05-11T04:04:38.414Z,18.88
2017-05-11T04:05:39.206Z,18.86
2017-05-11T04:06:39.844Z,18.86
2017-05-11T04:07:40.484Z,18.88
2017-05-11T04:08:41.122Z,18.83
2017-05-11T04:09:41.760Z,18.86
2017-05-11T04:10:42.401Z,18.81
2017-05-11T04:11:43.041Z,18.86
2017-05-11T04:12:43.674Z,18.86
2017-05-11T04:13:44.514Z,18.89
2017-05-11T04:14:45.100Z,18.84
2017-05-11T04:15:45.734Z,18.86
2017-05-11T04:16:46.375Z,18.80
2017-05-11T04:17:47.014Z,18.86
2017-05-11T04:18:47.654Z,18.84
2017-05-11T04:19:48.292Z,18.80
2017-05-11T04:20:48.930Z,18.81
2017-05-11T04:21:49.772Z,18.89
2017-05-11T04:22:50.413Z,18.78
2017-05-11T04:23:51.060Z,18.75
2017-05-11T04:24:51.693Z,18.70
2017-05-11T04:25:52.333Z,18.75
2017-05-11T04:26:52.974Z,18.73
2017-05-11T04:27:53.615Z,18.73
2017-05-11T04:28:54.254Z,18.78
2017-05-11T04:29:55.043Z,18.77
2017-05-11T04:30:55.683Z,18.63
2017-05-11T04:31:56.320Z,18.74
2017-05-11T04:32:56.959Z,18.75
2017-05-11T04:33:57.600Z,18.74
2017-05-11T04:34:58.242Z,18.65
2017-05-11T04:35:58.876Z,18.65
2017-05-11T04:36:59.515Z,18.62
2017-05-11T04:38:00.151Z,18.65
2017-05-11T04:39:00.990Z,18.58
2017-05-11T04:40:01.629Z,18.63
2017-05-11T04:41:02.269Z,18.68
2017-05-11T04:42:02.909Z,18.65
2017-05-11T04:43:03.546Z,18.66
2017-05-11T04:44:04.185Z,18.59
2017-05-11T04:45:04.824Z,18.66
2017-05-11T04:46:05.459Z,18.63
2017-05-11T04:47:06.295Z,18.63
2017-05-11T04:48:06.934Z,18.60
2017-05-11T04:49:07.574Z,18.53
2017-05-11T04:50:08.216Z,18.50
2017-05-11T04:51:08.849Z,18.50
2017-05-11T04:52:09.490Z,18.49
2017-05-11T04:53:10.128Z,18.45
2017-05-11T04:54:10.763Z,18.45
2017-05-11T04:55:11.555Z,18.53
2017-05-11T04:56:12.187Z,18.45
2017-05-11T04:57:12.827Z,18.52
2017-05-11T04:58:13.469Z,18.53
2017-05-11T04:59:14.108Z,18.50
2017-05-11T05:00:14.744Z,18.65
2017-05-11T05:01:15.378Z,18.56
2017-05-11T05:02:16.016Z,18.60
2017-05-11T05:03:16.957Z,18.55
2017-05-11T05:04:17.596Z,18.58
2017-05-11T05:05:18.233Z,18.66
2017-05-11T05:06:18.869Z,18.58
2017-05-11T05:07:19.509Z,18.63
2017-05-11T05:08:20.149Z,18.63
2017-05-11T05:09:20.788Z,18.70
2017-05-11T05:10:21.427Z,18.70
2017-05-11T05:11:22.061Z,18.62
2017-05-11T05:12:22.901Z,18.63
2017-05-11T05:13:23.541Z,18.60
2017-05-11T05:14:24.181Z,18.63
2017-05-11T05:15:24.819Z,18.62
2017-05-11T05:16:25.457Z,18.65
2017-05-11T05:17:26.100Z,18.63
2017-05-11T05:18:26.739Z,18.58
2017-05-11T05:19:27.376Z,18.65
2017-05-11T05:20:28.213Z,18.58
2017-05-11T05:21:28.854Z,18.53
2017-05-11T05:22:29.495Z,18.52
2017-05-11T05:23:30.133Z,18.59
2017-05-11T05:24:30.771Z,18.52
2017-05-11T05:25:31.404Z,18.50
2017-05-11T05:26:32.047Z,18.50
2017-05-11T05:27:32.689Z,18.52
2017-05-11T05:28:33.576Z,18.49
2017-05-11T05:29:34.218Z,18.53
2017-05-11T05:30:34.856Z,18.49
2017-05-11T05:31:35.495Z,18.50
2017-05-11T05:32:36.135Z,18.53
2017-05-11T05:33:36.775Z,18.53
2017-05-11T05:34:37.416Z,18.53
2017-05-11T05:35:38.053Z,18.50
2017-05-11T05:36:39.043Z,18.60
2017-05-11T05:37:39.684Z,18.60
2017-05-11T05:38:40.321Z,18.65
2017-05-11T05:39:40.959Z,18.53
2017-05-11T05:40:41.599Z,18.60
2017-05-11T05:41:42.238Z,18.52
2017-05-11T05:42:42.876Z,18.53
2017-05-11T05:43:43.516Z,18.56
2017-05-11T05:44:44.304Z,18.65
2017-05-11T05:45:44.943Z,18.44
2017-05-11T05:46:45.578Z,18.52
2017-05-11T05:47:46.219Z,18.45
2017-05-11T05:48:46.864Z,18.47
2017-05-11T05:49:47.496Z,18.44
2017-05-11T05:50:48.138Z,18.45
2017-05-11T05:51:48.774Z,18.41
2017-05-11T05:52:49.413Z,18.43
2017-05-11T05:53:50.305Z,18.44
2017-05-11T05:54:50.965Z,18.41
2017-05-11T05:55:51.579Z,18.43
2017-05-11T05:56:52.216Z,18.44
2017-05-11T05:57:52.852Z,18.45
2017-05-11T05:58:53.487Z,18.35
2017-05-11T05:59:54.125Z,18.41
2017-05-11T06:00:54.758Z,18.38
2017-05-11T06:01:55.597Z,18.44
2017-05-11T06:02:56.237Z,18.41
2017-05-11T06:03:56.879Z,18.43
2017-05-11T06:04:57.520Z,18.43
2017-05-11T06:05:58.157Z,18.44
2017-05-11T06:06:58.803Z,18.53
2017-05-11T06:07:59.442Z,18.55
2017-05-11T06:09:00.082Z,18.53
2017-05-11T06:10:00.969Z,18.50
2017-05-11T06:11:01.609Z,18.49
2017-05-11T06:12:02.249Z,18.56
2017-05-11T06:13:02.888Z,18.49
2017-05-11T06:14:03.527Z,18.44
2017-05-11T06:15:04.165Z,18.50
2017-05-11T06:16:04.804Z,18.50
2017-05-11T06:17:05.393Z,18.50
2017-05-11T06:18:06.227Z,18.47
2017-05-11T06:19:06.865Z,18.62
2017-05-11T06:20:07.508Z,18.53
2017-05-11T06:21:08.147Z,18.50
2017-05-11T06:22:08.790Z,18.55
2017-05-11T06:23:09.428Z,18.49
2017-05-11T06:24:10.066Z,18.55
2017-05-11T06:25:10.698Z,18.55
2017-05-11T06:26:11.342Z,18.53
2017-05-11T06:27:12.131Z,18.53
2017-05-11T06:28:12.772Z,18.53
2017-05-11T06:29:13.407Z,18.52
2017-05-11T06:30:14.049Z,18.58
2017-05-11T06:31:14.686Z,18.49
2017-05-11T06:32:15.318Z,18.52
2017-05-11T06:33:15.958Z,18.47
2017-05-11T06:34:16.551Z,18.50
2017-05-11T06:35:17.388Z,18.63
2017-05-11T06:36:18.026Z,18.59
2017-05-11T06:37:18.667Z,18.56
2017-05-11T06:38:19.307Z,18.52
2017-05-11T06:39:19.945Z,18.44
2017-05-11T06:40:20.583Z,18.49
2017-05-11T06:41:21.226Z,18.49
2017-05-11T06:42:21.867Z,18.56
2017-05-11T06:43:22.700Z,18.53
2017-05-11T06:44:23.339Z,18.58
2017-05-11T06:45:23.978Z,18.60
2017-05-11T06:46:24.616Z,18.63
2017-05-11T06:47:25.255Z,18.60
2017-05-11T06:48:25.889Z,18.65
2017-05-11T06:49:26.527Z,18.66
2017-05-11T06:50:27.162Z,18.63
2017-05-11T06:51:28.002Z,18.60
2017-05-11T06:52:28.643Z,18.60
2017-05-11T06:53:29.282Z,18.63
2017-05-11T06:54:29.920Z,18.60
2017-05-11T06:55:30.560Z,18.65
2017-05-11T06:56:31.200Z,18.56
2017-05-11T06:57:31.835Z,18.63
2017-05-11T06:58:32.474Z,18.65
2017-05-11T06:59:33.313Z,18.60
2017-05-11T07:00:33.955Z,18.68
2017-05-11T07:01:34.592Z,18.60
2017-05-11T07:02:35.231Z,18.73
2017-05-11T07:03:35.871Z,18.74
2017-05-11T07:04:36.513Z,18.74
2017-05-11T07:05:37.146Z,18.77
2017-05-11T07:06:37.784Z,18.80
2017-05-11T07:07:38.417Z,18.81
2017-05-11T07:08:39.256Z,18.84
2017-05-11T07:09:39.892Z,18.77
2017-05-11T07:10:40.531Z,18.86
2017-05-11T07:11:41.169Z,18.84
2017-05-11T07:12:41.809Z,18.84
2017-05-11T07:13:42.451Z,18.84
2017-05-11T07:14:43.089Z,18.83
2017-05-11T07:15:43.728Z,18.88
2017-05-11T07:16:44.567Z,18.84
2017-05-11T07:17:45.265Z,18.86
2017-05-11T07:18:45.902Z,18.88
2017-05-11T07:19:46.539Z,18.89
2017-05-11T07:20:47.181Z,18.89
2017-05-11T07:21:47.813Z,18.89
2017-05-11T07:22:48.450Z,18.86
2017-05-11T07:23:49.090Z,18.89
2017-05-11T07:24:49.879Z,18.90
2017-05-11T07:25:50.518Z,18.90
2017-05-11T07:26:51.157Z,18.89
2017-05-11T07:27:51.791Z,18.89
2017-05-11T07:28:52.431Z,18.55
2017-05-11T07:29:53.075Z,18.43
2017-05-11T07:30:53.719Z,18.41
2017-05-11T07:31:54.361Z,18.44
2017-05-11T07:32:55.200Z,18.44
2017-05-11T07:33:55.844Z,18.52
2017-05-11T07:34:56.483Z,18.50
2017-05-11T07:35:57.125Z,18.62
2017-05-11T07:36:57.714Z,18.70
2017-05-11T07:37:58.354Z,18.84
2017-05-11T07:38:58.996Z,18.81
2017-05-11T07:39:59.635Z,18.88
2017-05-11T07:41:00.274Z,19.00
2017-05-11T07:42:01.115Z,19.02
2017-05-11T07:43:01.760Z,19.00
2017-05-11T07:44:02.405Z,19.02
2017-05-11T07:45:03.047Z,19.02
2017-05-11T07:46:03.686Z,19.11
2017-05-11T07:47:04.331Z,19.09
2017-05-11T07:48:04.971Z,19.18
2017-05-11T07:49:05.617Z,19.16
2017-05-11T07:50:06.460Z,19.15
2017-05-11T07:51:07.100Z,19.04
2017-05-11T07:52:07.745Z,19.12
2017-05-11T07:53:08.392Z,19.15
2017-05-11T07:54:09.035Z,19.14
2017-05-11T07:55:09.678Z,19.24
2017-05-11T07:56:10.323Z,19.19
2017-05-11T07:57:10.962Z,19.21
2017-05-11T07:58:11.802Z,19.22
2017-05-11T07:59:12.447Z,19.19
2017-05-11T08:00:13.094Z,19.26
2017-05-11T08:01:13.735Z,19.21
2017-05-11T08:02:14.377Z,19.19
2017-05-11T08:03:15.021Z,19.24
2017-05-11T08:04:15.664Z,19.19
2017-05-11T08:05:16.299Z,19.16
2017-05-11T08:06:17.087Z,19.19
2017-05-11T08:07:17.726Z,19.29
2017-05-11T08:08:18.363Z,19.16
2017-05-11T08:09:19.006Z,19.19
2017-05-11T08:10:19.652Z,19.27
2017-05-11T08:11:20.298Z,19.33
2017-05-11T08:12:20.977Z,19.22
2017-05-11T08:13:21.587Z,19.27
2017-05-11T08:14:22.425Z,19.36
2017-05-11T08:15:23.064Z,19.31
2017-05-11T08:16:23.709Z,19.39
2017-05-11T08:17:24.350Z,19.31
2017-05-11T08:18:24.994Z,19.26
2017-05-11T08:19:25.639Z,19.22
2017-05-11T08:20:26.283Z,19.36
2017-05-11T08:21:26.924Z,19.36
2017-05-11T08:22:27.566Z,19.36
2017-05-11T08:23:28.409Z,19.44
2017-05-11T08:24:29.054Z,19.44
2017-05-11T08:25:29.698Z,19.45
2017-05-11T08:26:30.340Z,19.56
2017-05-11T08:27:30.985Z,19.51
2017-05-11T08:28:31.631Z,19.56
2017-05-11T08:29:32.275Z,19.49
2017-05-11T08:30:32.915Z,19.59
2017-05-11T08:31:33.853Z,19.56
2017-05-11T08:32:34.499Z,19.62
2017-05-11T08:33:35.143Z,19.59
2017-05-11T08:34:35.785Z,19.71
2017-05-11T08:35:36.431Z,19.66
2017-05-11T08:36:37.073Z,19.73
2017-05-11T08:37:37.718Z,19.73
2017-05-11T08:38:38.365Z,19.71
2017-05-11T08:39:39.157Z,19.74
2017-05-11T08:40:39.801Z,19.81
2017-05-11T08:41:40.446Z,19.88
2017-05-11T08:42:41.085Z,19.85
2017-05-11T08:43:41.726Z,19.89
2017-05-11T08:44:42.373Z,19.86
2017-05-11T08:45:43.022Z,19.92
2017-05-11T08:46:43.659Z,19.91
2017-05-11T08:47:44.509Z,19.88
2017-05-11T08:48:45.153Z,19.99
2017-05-11T08:49:45.790Z,19.91
2017-05-11T08:50:46.435Z,19.95
2017-05-11T08:51:47.083Z,19.99
2017-05-11T08:52:47.726Z,19.95
2017-05-11T08:53:48.370Z,19.95
2017-05-11T08:54:49.017Z,19.95
2017-05-11T08:55:49.661Z,20.02
2017-05-11T08:56:50.611Z,20.03
2017-05-11T08:57:51.256Z,19.99
2017-05-11T08:58:51.903Z,20.13
2017-05-11T08:59:52.551Z,20.21
2017-05-11T09:00:53.193Z,20.26
2017-05-11T09:01:53.832Z,20.14
2017-05-11T09:02:54.474Z,20.09
2017-05-11T09:03:55.116Z,20.03
2017-05-11T09:04:55.961Z,20.02
2017-05-11T09:05:56.604Z,20.06
2017-05-11T09:06:57.253Z,20.06
2017-05-11T09:07:57.891Z,20.06
2017-05-11T09:08:58.538Z,20.04
2017-05-11T09:09:59.184Z,19.92
2017-05-11T09:10:59.824Z,19.92
2017-05-11T09:12:00.469Z,20.04
2017-05-11T09:13:01.319Z,20.02
2017-05-11T09:14:01.954Z,19.99
2017-05-11T09:15:02.600Z,19.88
2017-05-11T09:16:03.245Z,19.92
2017-05-11T09:17:03.892Z,19.91
2017-05-11T09:18:04.538Z,19.94
2017-05-11T09:19:05.184Z,19.94
2017-05-11T09:20:05.832Z,19.96
2017-05-11T09:21:06.631Z,20.00
2017-05-11T09:22:07.274Z,20.00
2017-05-11T09:23:07.921Z,20.02
2017-05-11T09:24:08.562Z,20.00
2017-05-11T09:25:09.205Z,19.85
2017-05-11T09:26:09.848Z,19.89
2017-05-11T09:27:10.495Z,19.74
2017-05-11T09:28:11.144Z,19.69
2017-05-11T09:29:12.035Z,19.59
2017-05-11T09:30:12.679Z,19.48
2017-05-11T09:31:13.323Z,19.44
2017-05-11T09:32:13.968Z,19.41
2017-05-11T09:33:14.614Z,19.34
2017-05-11T09:34:15.252Z,19.34
2017-05-11T09:35:15.897Z,19.24
2017-05-11T09:36:16.537Z,19.21
2017-05-11T09:37:17.181Z,19.26
2017-05-11T09:38:18.027Z,19.21
2017-05-11T09:39:18.672Z,19.22
2017-05-11T09:40:19.312Z,19.19
2017-05-11T09:41:19.954Z,19.18
2017-05-11T09:42:20.600Z,19.21
2017-05-11T09:43:21.240Z,19.22
2017-05-11T09:44:21.887Z,19.21
2017-05-11T09:45:22.531Z,19.26
2017-05-11T09:46:23.377Z,19.24
2017-05-11T09:47:24.016Z,19.27
2017-05-11T09:48:24.661Z,19.29
2017-05-11T09:49:25.307Z,19.24
2017-05-11T09:50:25.952Z,19.30
2017-05-11T09:51:26.597Z,19.24
2017-05-11T09:52:27.242Z,19.36
2017-05-11T09:53:27.888Z,19.45
2017-05-11T09:54:28.729Z,19.47
2017-05-11T09:55:29.374Z,19.47
2017-05-11T09:56:30.012Z,19.52
2017-05-11T09:57:30.653Z,19.55
2017-05-11T09:58:31.301Z,19.66
2017-05-11T09:59:31.942Z,19.66
2017-05-11T10:00:32.587Z,19.76
2017-05-11T10:01:33.234Z,19.70
2017-05-11T10:02:34.078Z,19.77
2017-05-11T10:03:34.721Z,19.85
2017-05-11T10:04:35.366Z,19.84
2017-05-11T10:05:36.014Z,19.88
2017-05-11T10:06:36.653Z,19.92
2017-05-11T10:07:37.300Z,19.85
2017-05-11T10:08:37.941Z,19.94
2017-05-11T10:09:38.586Z,19.92
2017-05-11T10:10:39.229Z,19.95
2017-05-11T10:11:40.032Z,19.96
2017-05-11T10:12:40.732Z,19.92
2017-05-11T10:13:41.382Z,20.06
2017-05-11T10:14:42.029Z,20.02
2017-05-11T10:15:42.671Z,20.03
2017-05-11T10:16:43.319Z,20.09
2017-05-11T10:17:43.967Z,20.11
2017-05-11T10:18:44.614Z,20.21
2017-05-11T10:19:45.458Z,20.18
2017-05-11T10:20:46.102Z,20.18
2017-05-11T10:21:46.748Z,20.26
2017-05-11T10:22:47.390Z,20.31
2017-05-11T10:23:48.034Z,20.37
2017-05-11T10:24:48.681Z,20.31
2017-05-11T10:25:49.329Z,20.44
2017-05-11T10:26:49.975Z,20.55
2017-05-11T10:27:50.775Z,20.63
2017-05-11T10:28:51.422Z,20.62
2017-05-11T10:29:52.067Z,20.69
2017-05-11T10:30:52.708Z,20.59
2017-05-11T10:31:53.356Z,20.67
2017-05-11T10:32:54.004Z,20.65
2017-05-11T10:33:54.653Z,20.60
2017-05-11T10:34:55.299Z,20.52
2017-05-11T10:35:56.147Z,20.62
2017-05-11T10:36:56.796Z,20.50
2017-05-11T10:37:57.499Z,20.50
2017-05-11T10:38:58.141Z,20.41
2017-05-11T10:39:58.784Z,20.34
2017-05-11T10:40:59.431Z,20.22
2017-05-11T10:42:00.077Z,20.13
2017-05-11T10:43:00.723Z,20.21
2017-05-11T10:44:01.522Z,20.16
2017-05-11T10:45:02.166Z,20.03
2017-05-11T10:46:02.813Z,20.02
2017-05-11T10:47:03.459Z,19.89
2017-05-11T10:48:04.098Z,19.89
2017-05-11T10:49:04.742Z,19.92
2017-05-11T10:50:05.388Z,19.92
2017-05-11T10:51:06.036Z,19.89
2017-05-11T10:52:06.684Z,19.82
2017-05-11T10:53:07.530Z,19.84
2017-05-11T10:54:08.175Z,19.76
2017-05-11T10:55:08.820Z,19.70
2017-05-11T10:56:09.468Z,19.76
2017-05-11T10:57:10.115Z,19.82
2017-05-11T10:58:10.756Z,19.89
2017-05-11T10:59:11.402Z,19.85
2017-05-11T11:00:12.043Z,19.89
2017-05-11T11:01:12.889Z,20.06
2017-05-11T11:02:13.541Z,20.21
2017-05-11T11:03:14.191Z,20.43
2017-05-11T11:04:14.838Z,20.48
2017-05-11T11:05:15.489Z,20.65
2017-05-11T11:06:16.133Z,20.63
2017-05-11T11:07:16.781Z,20.65
2017-05-11T11:08:17.432Z,20.63
2017-05-11T11:09:18.278Z,20.75
2017-05-11T11:10:18.930Z,20.93
2017-05-11T11:11:19.579Z,21.02
2017-05-11T11:12:20.221Z,21.24
2017-05-11T11:13:20.870Z,21.32
2017-05-11T11:14:21.517Z,21.57
2017-05-11T11:15:22.167Z,21.72
2017-05-11T11:16:22.815Z,21.70
2017-05-11T11:17:23.607Z,21.92
2017-05-11T11:18:24.253Z,21.92
2017-05-11T11:19:24.897Z,22.04
2017-05-11T11:20:25.543Z,22.14
2017-05-11T11:21:26.194Z,22.07
2017-05-11T11:22:26.845Z,22.18
2017-05-11T11:23:27.494Z,22.25
2017-05-11T11:24:28.145Z,22.39
2017-05-11T11:25:28.795Z,22.35
2017-05-11T11:26:29.647Z,22.43
2017-05-11T11:27:30.297Z,22.60
2017-05-11T11:28:30.948Z,22.57
2017-05-11T11:29:31.598Z,22.53
2017-05-11T11:30:32.248Z,22.47
2017-05-11T11:31:32.902Z,22.57
2017-05-11T11:32:33.555Z,22.68
2017-05-11T11:33:34.205Z,22.73
2017-05-11T11:34:35.108Z,22.72
2017-05-11T11:35:35.762Z,22.84
2017-05-11T11:36:36.415Z,22.85
2017-05-11T11:37:37.072Z,23.03
2017-05-11T11:38:37.724Z,23.03
2017-05-11T11:39:38.375Z,23.18
2017-05-11T11:40:39.031Z,23.17
2017-05-11T11:41:39.685Z,23.27
2017-05-11T11:42:40.587Z,23.28
2017-05-11T11:43:41.242Z,23.43
2017-05-11T11:44:41.896Z,23.41
2017-05-11T11:45:42.549Z,23.48
2017-05-11T11:46:43.197Z,23.61
2017-05-11T11:47:43.854Z,23.44
2017-05-11T11:48:44.504Z,23.66
2017-05-11T11:49:45.160Z,23.65
2017-05-11T11:50:46.015Z,23.77
2017-05-11T11:51:46.670Z,23.93
2017-05-11T11:52:47.319Z,24.20
2017-05-11T11:53:47.971Z,24.21
2017-05-11T11:54:48.623Z,24.40
2017-05-11T11:55:49.275Z,24.48
2017-05-11T11:56:49.928Z,24.54
2017-05-11T11:57:50.582Z,24.80
2017-05-11T11:58:51.439Z,24.96
2017-05-11T11:59:52.093Z,25.07
2017-05-11T12:00:52.747Z,25.21
2017-05-11T12:01:53.401Z,25.32
2017-05-11T12:02:54.055Z,25.38
2017-05-11T12:03:54.706Z,25.47
2017-05-11T12:04:55.363Z,25.31
2017-05-11T12:05:56.019Z,25.41
2017-05-11T12:06:56.675Z,25.65
2017-05-11T12:07:57.481Z,25.80
2017-05-11T12:08:58.136Z,25.84
2017-05-11T12:09:58.792Z,25.85
2017-05-11T12:10:59.446Z,25.68
2017-05-11T12:12:00.103Z,25.87
2017-05-11T12:13:00.758Z,26.00
2017-05-11T12:14:01.415Z,25.84
2017-05-11T12:15:02.072Z,26.15
2017-05-11T12:16:02.926Z,26.15
2017-05-11T12:17:03.584Z,26.29
2017-05-11T12:18:04.234Z,26.41
2017-05-11T12:19:04.892Z,26.36
2017-05-11T12:20:05.549Z,26.51
2017-05-11T12:21:06.205Z,26.26
2017-05-11T12:22:06.863Z,26.25
2017-05-11T12:23:07.516Z,26.47
2017-05-11T12:24:08.419Z,26.47
2017-05-11T12:25:09.074Z,26.55
2017-05-11T12:26:09.729Z,26.62
2017-05-11T12:27:10.385Z,26.41
2017-05-11T12:28:11.040Z,26.48
2017-05-11T12:29:11.695Z,26.60
2017-05-11T12:30:12.347Z,26.65
2017-05-11T12:31:13.003Z,26.59
2017-05-11T12:32:14.057Z,26.43
2017-05-11T12:33:14.709Z,26.05
2017-05-11T12:34:15.359Z,26.25
2017-05-11T12:35:16.013Z,26.52
2017-05-11T12:36:16.667Z,26.62
2017-05-11T12:37:17.325Z,26.77
2017-05-11T12:38:17.983Z,26.90
2017-05-11T12:39:18.641Z,26.88
2017-05-11T12:40:19.289Z,26.99
2017-05-11T12:41:20.146Z,27.10
2017-05-11T12:42:20.799Z,27.20
2017-05-11T12:43:21.455Z,27.27
2017-05-11T12:44:22.110Z,27.32
2017-05-11T12:45:22.761Z,27.37
2017-05-11T12:46:23.417Z,27.40
2017-05-11T12:47:24.069Z,27.37
2017-05-11T12:48:24.720Z,27.37
2017-05-11T12:49:25.577Z,27.39
2017-05-11T12:50:26.231Z,27.48
2017-05-11T12:51:26.939Z,27.52
2017-05-11T12:52:27.595Z,27.59
2017-05-11T12:53:28.253Z,27.54
2017-05-11T12:54:28.909Z,27.67
2017-05-11T12:55:29.569Z,27.67
2017-05-11T12:56:30.224Z,27.70
2017-05-11T12:57:31.031Z,27.87
2017-05-11T12:58:31.689Z,27.77
2017-05-11T12:59:32.347Z,27.78
2017-05-11T13:00:32.998Z,27.89
2017-05-11T13:01:33.652Z,27.85